AirNav   Air Wisconsin Up To $57,000 Bonus
 
 548 users online  

NC59 Alexander County Airport
Taylorsville, North Carolina, USA

GOING TO TAYLORSVILLE?


FAA INFORMATION EFFECTIVE 03 NOVEMBER 2022

Location

FAA Identifier: NC59
Lat/Long: 35-51-02.4770N 081-08-38.2930W
35-51.041283N 081-08.638217W
35.8506881,-81.1439703
(estimated)
Elevation: 1110 ft. / 338 m (estimated)
Variation: 05W (1985)
From city: 4 miles SE of TAYLORSVILLE, NC
Time zone: UTC -5 (UTC -4 during Daylight Saving Time)
Zip code: 28681

Airport Operations

Airport use: Private use. Permission required prior to landing
Activation date: 05/1975
Control tower: no
ARTCC: ATLANTA CENTER
FSS: RALEIGH FLIGHT SERVICE STATION
Attendance: IREG
Wind indicator: yes
Segmented circle: no

Airport Communications

WX AWOS-3 at SVH (11 nm SE): 119.225 (704-873-1978)
WX ASOS at HKY (14 nm SW): 118.325 (828-322-2996)

Nearby radio navigation aids

VOR radial/distance  VOR name  Freq  Var
BZMr109/4.8BARRETTS MOUNTAIN VOR/DME113.7506W

 
NDB name  Hdg/Dist  Freq  Var  ID
TAWBA070/8.733206WHK .... -.-
FIDDLERS079/27.039107WFIQ ..-. .. --.-
ASHEE173/36.041007WJUH .--- ..- ....
STONIA007/39.626006WGHJ --. .... .---

Airport Services

Airframe service: NONE
Powerplant service: NONE

Runway Information

Runway 9/27

Dimensions: 2700 x 50 ft. / 823 x 15 m
Surface: turf, in good condition
RUNWAY 9  RUNWAY 27
Traffic pattern: leftleft

Airport Ownership and Management from official FAA records

Ownership: Privately-owned
Owner: DEBRA L. WARREN
ROUTE 6 BOX 98
TAYLORSVILLE, NC 28681
Phone 828-632-8635
Manager: DEBRA L. WARREN
ROUTE 6 BOX 98
TAYLORSVILLE, NC 28681
Phone 828-632-8635

Airport Operational Statistics

Aircraft based on the field: 6
Single engine airplanes: 3
Multi engine airplanes: 1
Ultralights: 2
  • ULTRALIGHTS ON & INVOF ARPT.
    

Additional Remarks

FOR CD CTC ATLANTA ARTCC AT 770-210-7692.

Instrument Procedures

There are no published instrument procedures at NC59.

Some nearby airports with instrument procedures:

KSVH - Statesville Regional Airport (11 nm SE)
KHKY - Hickory Regional Airport (14 nm SW)
14A - Lake Norman Airpark (19 nm SE)
KIPJ - Lincolnton-Lincoln County Regional Airport (22 nm S)
KUKF - Wilkes County Airport (22 nm N)
 
Loc | Ops | Rwys | IFR | FBO | Links
Com | Nav | Svcs | Stats | Notes
Area around NC59 (Alexander County Airport)
 
Road maps at: MapQuest Bing Google
 
Aerial photo
No photo
 
Sectional chart

 
Airport distance calculator
Flying to Alexander County Airport? Find the distance to fly.

From to NC59

Sunrise and sunset
Times for 28-Nov-2022
 Local
(UTC-5)
 Zulu
(UTC)
Morning civil twilight06:4711:47
Sunrise07:1512:15
Sunset17:1122:11
Evening civil twilight17:3922:39

Current date and time
Zulu (UTC)  28-Nov-2022 11:54:56
Local (UTC-5)  28-Nov-2022 06:54:56
 
METAR
KSVH 
11nm SE 
281135Z AUTO 00000KT 10SM CLR 07/04 A2982 RMK AO2 T00650044
KHKY 
13nm SW 
281053Z 30010KT 10SM CLR 11/05 A2981 RMK AO2 SLP080 T01110050 $
KUKF 
22nm N 
281115Z AUTO 00000KT 10SM OVC046 09/04 A2986 RMK AO2
KIPJ 
22nm S 
281135Z AUTO 00000KT 10SM CLR 03/03 A2984 RMK AO2 T00300027
TAF
KHKY 
13nm SW 
280520Z 2806/2906 25004KT P6SM SKC FM281200 26003KT P6SM FEW250 FM281700 29005KT P6SM SCT024 FM282300 34003KT P6SM FEW250
NOTAMs
Click for the latest NOTAMs
NOTAMs are issued by the DoD/FAA and will open in a separate window not controlled by AirNav.

 

 
 

Would you like to see your business listed on this page?

 If your business provides an interesting product or service to pilots, flight crews, aircraft, or users of the Alexander County Airport, you should consider listing it here.  To start the listing process, click on the button below
 
Add a business
 

Other Pages about Alexander County Airport

Update a link
 
Copyright © AirNav, LLC. All rights reserved. Privacy Policy  Contact